createdAt,value
2018-10-19T00:01:18.202Z,25.73
2018-10-19T00:03:30.392Z,25.07
2018-10-19T00:05:42.589Z,24.70
2018-10-19T00:07:54.793Z,26.80
2018-10-19T00:10:08.048Z,25.07
2018-10-19T00:12:20.242Z,19.30
2018-10-19T00:14:32.498Z,22.20
2018-10-19T00:16:44.711Z,25.27
2018-10-19T00:18:56.912Z,25.80
2018-10-19T00:21:09.276Z,25.00
2018-10-19T00:23:21.427Z,26.20
2018-10-19T00:25:33.636Z,24.10
2018-10-19T00:27:45.825Z,25.33
2018-10-19T00:29:58.019Z,25.90
2018-10-19T00:32:10.228Z,23.67
2018-10-19T00:34:22.448Z,23.03
2018-10-19T00:36:34.688Z,25.37
2018-10-19T00:38:46.887Z,28.60
2018-10-19T00:40:59.069Z,31.00
2018-10-19T00:43:11.399Z,28.40
2018-10-19T00:45:55.903Z,31.07
2018-10-19T00:48:12.102Z,30.20
2018-10-19T00:50:24.317Z,31.00
2018-10-19T00:52:36.519Z,28.53
2018-10-19T00:54:48.755Z,28.80
2018-10-19T00:57:01.023Z,28.20
2018-10-19T00:59:13.262Z,29.03
2018-10-19T01:01:25.430Z,25.20
2018-10-19T01:03:37.779Z,28.30
2018-10-19T01:05:50.000Z,29.73
2018-10-19T01:08:02.244Z,28.93
2018-10-19T01:10:18.977Z,31.27
2018-10-19T01:12:31.178Z,31.63
2018-10-19T01:14:43.390Z,31.67
2018-10-19T01:16:55.631Z,32.47
2018-10-19T01:19:07.825Z,32.43
2018-10-19T01:21:20.040Z,29.13
2018-10-19T01:23:32.254Z,33.73
2018-10-19T01:25:44.452Z,32.93
2018-10-19T01:27:56.679Z,33.97
2018-10-19T01:30:09.371Z,33.17
2018-10-19T01:32:21.563Z,32.90
2018-10-19T01:34:33.754Z,33.43
2018-10-19T01:36:45.987Z,31.83
2018-10-19T01:38:58.210Z,28.60
2018-10-19T01:41:10.524Z,32.50
2018-10-19T01:43:22.688Z,27.73
2018-10-19T01:45:34.921Z,29.40
2018-10-19T01:47:47.107Z,32.07
2018-10-19T01:49:59.287Z,32.23
2018-10-19T01:52:11.535Z,33.03
2018-10-19T01:54:23.702Z,33.20
2018-10-19T01:56:35.893Z,33.43
2018-10-19T01:58:48.119Z,33.60
2018-10-19T02:01:00.294Z,34.13
2018-10-19T02:03:12.569Z,34.13
2018-10-19T02:05:24.694Z,29.27
2018-10-19T02:07:36.879Z,33.23
2018-10-19T02:09:49.091Z,33.17
2018-10-19T02:12:01.342Z,31.57
2018-10-19T02:14:13.571Z,31.23
2018-10-19T02:16:25.756Z,32.50
2018-10-19T02:18:37.946Z,30.03
2018-10-19T02:20:50.179Z,33.27
2018-10-19T02:23:02.412Z,32.80
2018-10-19T02:25:14.650Z,33.27
2018-10-19T02:27:26.902Z,35.30
2018-10-19T02:29:39.099Z,35.53
2018-10-19T02:31:51.335Z,35.37
2018-10-19T02:34:03.727Z,33.40
2018-10-19T02:36:15.894Z,33.13
2018-10-19T02:38:28.106Z,36.33
2018-10-19T02:40:40.283Z,35.77
2018-10-19T02:42:52.519Z,34.50
2018-10-19T02:45:05.034Z,35.70
2018-10-19T02:47:17.252Z,35.00
2018-10-19T02:49:29.402Z,35.00
2018-10-19T02:51:41.595Z,35.07
2018-10-19T02:53:53.791Z,35.37
2018-10-19T02:56:06.044Z,34.47
2018-10-19T02:58:18.273Z,34.97
2018-10-19T03:00:30.473Z,36.37
2018-10-19T03:02:42.646Z,35.33
2018-10-19T03:04:54.973Z,33.00
2018-10-19T03:07:07.409Z,33.87
2018-10-19T03:09:19.611Z,33.67
2018-10-19T03:11:31.857Z,34.70
2018-10-19T03:13:44.012Z,35.07
2018-10-19T03:15:56.219Z,35.77
2018-10-19T03:18:08.402Z,37.03
2018-10-19T03:20:20.602Z,37.70
2018-10-19T03:22:32.804Z,37.30
2018-10-19T03:24:45.018Z,37.10
2018-10-19T03:26:57.270Z,38.07
2018-10-19T03:29:09.519Z,36.10
2018-10-19T03:31:21.665Z,37.27
2018-10-19T03:33:33.878Z,39.43
2018-10-19T03:35:46.077Z,38.90
2018-10-19T03:37:58.314Z,38.10
2018-10-19T03:40:10.512Z,38.50
2018-10-19T03:42:22.752Z,35.70
2018-10-19T03:44:34.943Z,37.73
2018-10-19T03:46:47.138Z,37.37
2018-10-19T03:48:59.417Z,34.90
2018-10-19T03:51:11.641Z,36.17
2018-10-19T03:53:23.780Z,36.23
2018-10-19T03:55:36.031Z,35.43
2018-10-19T03:57:48.210Z,37.30
2018-10-19T04:00:00.440Z,36.87
2018-10-19T04:02:12.626Z,36.63
2018-10-19T04:04:24.851Z,36.43
2018-10-19T04:06:37.068Z,36.87
2018-10-19T04:08:49.226Z,33.77
2018-10-19T04:11:01.473Z,30.37
2018-10-19T04:13:13.677Z,35.07
2018-10-19T04:15:25.895Z,35.97
2018-10-19T04:17:38.227Z,36.67
2018-10-19T04:19:50.425Z,36.00
2018-10-19T04:22:02.662Z,36.60
2018-10-19T04:24:14.883Z,36.20
2018-10-19T04:26:27.097Z,37.13
2018-10-19T04:28:39.298Z,36.47
2018-10-19T04:30:51.470Z,37.73
2018-10-19T04:33:03.874Z,39.27
2018-10-19T04:35:16.132Z,40.07
2018-10-19T04:37:28.259Z,39.70
2018-10-19T04:39:40.437Z,40.80
2018-10-19T04:41:52.769Z,41.43
2018-10-19T04:44:05.096Z,38.57
2018-10-19T04:46:17.314Z,38.97
2018-10-19T04:48:29.532Z,39.63
2018-10-19T04:50:41.771Z,38.43
2018-10-19T04:52:54.033Z,39.67
2018-10-19T04:55:09.298Z,40.63
2018-10-19T04:57:21.496Z,38.50
2018-10-19T04:59:33.702Z,39.40
2018-10-19T05:01:45.992Z,37.90
2018-10-19T05:03:58.233Z,38.27
2018-10-19T05:06:10.524Z,38.03
2018-10-19T05:08:22.706Z,37.47
2018-10-19T05:10:34.879Z,39.03
2018-10-19T05:12:47.144Z,38.10
2018-10-19T05:14:59.340Z,42.00
2018-10-19T05:17:11.605Z,41.97
2018-10-19T05:19:23.752Z,42.67
2018-10-19T05:21:36.543Z,39.30
2018-10-19T05:23:48.730Z,35.97
2018-10-19T05:26:00.990Z,40.43
2018-10-19T05:28:13.181Z,41.70
2018-10-19T05:30:25.427Z,42.40
2018-10-19T05:32:38.117Z,44.13
2018-10-19T05:34:50.282Z,42.50
2018-10-19T05:37:02.479Z,42.33
2018-10-19T05:39:14.650Z,40.93
2018-10-19T05:41:26.851Z,43.97
2018-10-19T05:43:39.160Z,40.87
2018-10-19T05:45:51.328Z,43.00
2018-10-19T05:48:03.607Z,44.07
2018-10-19T05:50:15.862Z,43.97
2018-10-19T05:52:28.136Z,43.53
2018-10-19T05:54:40.370Z,44.23
2018-10-19T05:56:52.565Z,43.27
2018-10-19T05:59:04.872Z,42.70
2018-10-19T06:01:17.094Z,44.53
2018-10-19T06:03:29.346Z,41.47
2018-10-19T06:05:41.555Z,40.90
2018-10-19T06:07:53.815Z,40.73
2018-10-19T06:10:06.403Z,42.00
2018-10-19T06:12:18.624Z,41.93
2018-10-19T06:14:30.855Z,44.03
2018-10-19T06:16:43.047Z,44.87
2018-10-19T06:18:55.343Z,44.43
2018-10-19T06:21:07.613Z,44.07
2018-10-19T06:23:19.771Z,44.90
2018-10-19T06:25:31.966Z,45.40
2018-10-19T06:27:44.149Z,43.80
2018-10-19T06:29:56.352Z,43.20
2018-10-19T06:32:08.638Z,42.47
2018-10-19T06:34:20.824Z,42.67
2018-10-19T06:36:33.019Z,42.07
2018-10-19T06:38:45.434Z,43.47
2018-10-19T06:40:57.630Z,44.33
2018-10-19T06:43:09.896Z,44.30
2018-10-19T06:45:22.138Z,44.90
2018-10-19T06:47:34.357Z,45.00
2018-10-19T06:49:46.640Z,46.07
2018-10-19T06:51:58.864Z,45.50
2018-10-19T06:54:11.067Z,37.20
2018-10-19T06:56:23.275Z,39.43
2018-10-19T06:58:35.445Z,43.37
2018-10-19T07:00:48.568Z,41.60
2018-10-19T07:03:00.764Z,42.57
2018-10-19T07:05:13.062Z,42.40
2018-10-19T07:07:25.261Z,43.13
2018-10-19T07:09:37.575Z,41.57
2018-10-19T07:11:49.821Z,41.93
2018-10-19T07:14:02.060Z,44.43
2018-10-19T07:16:14.228Z,38.07
2018-10-19T07:18:26.429Z,41.33
2018-10-19T07:20:39.506Z,42.23
2018-10-19T07:22:52.020Z,43.20
2018-10-19T07:25:04.451Z,39.47
2018-10-19T07:27:16.686Z,36.97
2018-10-19T07:29:28.878Z,41.20
2018-10-19T07:31:41.136Z,38.07
2018-10-19T07:33:53.754Z,35.73
2018-10-19T07:36:05.951Z,32.67
2018-10-19T07:38:18.235Z,30.67
2018-10-19T07:40:30.460Z,39.17
2018-10-19T07:42:42.708Z,37.83
2018-10-19T07:44:54.896Z,43.83
2018-10-19T07:47:07.181Z,39.97
2018-10-19T07:49:19.315Z,41.37
2018-10-19T07:51:32.355Z,41.37
2018-10-19T07:53:44.627Z,44.37
2018-10-19T07:55:56.886Z,46.63
2018-10-19T07:58:09.127Z,43.33
2018-10-19T08:00:21.370Z,40.67
2018-10-19T08:02:33.529Z,42.83
2018-10-19T08:04:45.813Z,45.83
2018-10-19T08:06:58.024Z,44.43
2018-10-19T08:09:10.887Z,45.20
2018-10-19T08:11:23.158Z,46.27
2018-10-19T08:13:35.348Z,45.37
2018-10-19T08:15:47.580Z,44.60
2018-10-19T08:17:59.769Z,41.53
2018-10-19T08:20:12.108Z,43.37
2018-10-19T08:22:24.260Z,43.57
2018-10-19T08:24:36.491Z,47.80
2018-10-19T08:26:49.546Z,41.83
2018-10-19T08:29:03.653Z,47.80
2018-10-19T08:31:15.858Z,46.33
2018-10-19T08:33:28.094Z,47.03
2018-10-19T08:35:40.348Z,42.83
2018-10-19T08:37:52.787Z,46.07
2018-10-19T08:40:05.711Z,43.70
2018-10-19T08:42:17.903Z,44.07
2018-10-19T08:44:30.091Z,43.57
2018-10-19T08:46:42.472Z,44.50
2018-10-19T08:48:54.786Z,43.97
2018-10-19T08:51:07.449Z,43.47
2018-10-19T08:53:19.641Z,44.93
2018-10-19T08:55:31.871Z,43.70
2018-10-19T08:57:44.079Z,41.67
2018-10-19T08:59:56.250Z,47.27
2018-10-19T09:02:09.452Z,43.10
2018-10-19T09:04:23.497Z,45.20
2018-10-19T09:06:35.758Z,44.77
2018-10-19T09:08:48.008Z,44.93
2018-10-19T09:11:00.323Z,46.77
2018-10-19T09:13:12.470Z,46.03
2018-10-19T09:15:24.683Z,45.37
2018-10-19T09:17:36.908Z,46.80
2018-10-19T09:19:49.514Z,46.50
2018-10-19T09:22:01.778Z,44.23
2018-10-19T09:24:15.022Z,44.10
2018-10-19T09:26:27.272Z,41.70
2018-10-19T09:28:39.435Z,44.90
2018-10-19T09:30:51.709Z,45.00
2018-10-19T09:33:04.286Z,47.80
2018-10-19T09:35:16.606Z,45.87
2018-10-19T09:37:28.715Z,47.43
2018-10-19T09:39:40.935Z,45.17
2018-10-19T09:41:53.228Z,45.07
2018-10-19T09:44:05.435Z,44.10
2018-10-19T09:46:17.653Z,46.07
2018-10-19T09:48:29.953Z,44.43
2018-10-19T09:50:42.212Z,46.13
2018-10-19T09:52:54.491Z,46.37
2018-10-19T09:55:07.516Z,49.40
2018-10-19T09:57:20.599Z,45.13
2018-10-19T09:59:32.831Z,48.20
2018-10-19T10:01:45.065Z,44.23
2018-10-19T10:03:57.605Z,43.17
2018-10-19T10:06:09.779Z,40.90
2018-10-19T10:08:22.606Z,46.83
2018-10-19T10:10:34.851Z,47.10
2018-10-19T10:12:47.183Z,42.00
2018-10-19T10:15:00.405Z,41.73
2018-10-19T10:17:12.618Z,44.73
2018-10-19T10:19:24.805Z,45.93
2018-10-19T10:21:38.858Z,47.93
2018-10-19T10:23:51.075Z,46.40
2018-10-19T10:26:03.367Z,41.50
2018-10-19T10:28:15.663Z,44.50
2018-10-19T10:30:27.867Z,47.43
2018-10-19T10:32:40.176Z,47.27
2018-10-19T10:34:52.399Z,48.83
2018-10-19T10:37:04.638Z,47.90
2018-10-19T10:39:16.963Z,43.13
2018-10-19T10:41:29.126Z,47.33
2018-10-19T10:43:41.346Z,43.70
2018-10-19T10:45:53.611Z,46.87
2018-10-19T10:48:05.784Z,40.70
2018-10-19T10:50:18.027Z,44.67
2018-10-19T10:52:30.272Z,43.70
2018-10-19T10:54:45.384Z,48.87
2018-10-19T10:56:57.626Z,46.73
2018-10-19T10:59:09.808Z,48.70
2018-10-19T11:01:22.138Z,43.83
2018-10-19T11:03:34.323Z,45.03
2018-10-19T11:05:46.805Z,46.00
2018-10-19T11:07:59.042Z,44.60
2018-10-19T11:10:11.411Z,47.83
2018-10-19T11:12:23.611Z,49.27
2018-10-19T11:14:35.864Z,48.27
2018-10-19T11:16:48.122Z,45.37
2018-10-19T11:19:04.370Z,43.37
2018-10-19T11:21:17.389Z,48.47
2018-10-19T11:23:29.649Z,46.27
2018-10-19T11:25:41.858Z,48.70
2018-10-19T11:27:54.096Z,48.63
2018-10-19T11:30:07.385Z,41.77
2018-10-19T11:32:19.631Z,48.17
2018-10-19T11:34:31.819Z,41.10
2018-10-19T11:36:44.067Z,48.27
2018-10-19T11:38:56.295Z,46.47
2018-10-19T11:41:08.533Z,47.97
2018-10-19T11:43:20.772Z,48.77
2018-10-19T11:45:35.051Z,43.43
2018-10-19T11:47:47.384Z,48.27
2018-10-19T11:50:04.543Z,42.60
2018-10-19T11:52:16.760Z,49.97
2018-10-19T11:54:28.995Z,47.70
2018-10-19T11:56:41.631Z,44.53
2018-10-19T11:58:53.833Z,46.23
2018-10-19T12:01:06.142Z,46.27
2018-10-19T12:03:18.394Z,48.57
2018-10-19T12:05:30.736Z,45.57
2018-10-19T12:07:43.057Z,41.30
2018-10-19T12:09:56.179Z,48.20
2018-10-19T12:12:08.402Z,47.37
2018-10-19T12:14:20.635Z,43.13
2018-10-19T12:16:32.949Z,46.80
2018-10-19T12:18:45.072Z,48.23
2018-10-19T12:20:57.400Z,45.33
2018-10-19T12:23:09.537Z,45.93
2018-10-19T12:25:21.766Z,47.93
2018-10-19T12:27:34.016Z,45.60
2018-10-19T12:29:46.515Z,45.37
2018-10-19T12:31:59.537Z,43.67
2018-10-19T12:34:11.777Z,47.73
2018-10-19T12:36:24.075Z,37.03
2018-10-19T12:38:36.275Z,30.23
2018-10-19T12:40:48.599Z,40.97
2018-10-19T12:43:00.926Z,43.90
2018-10-19T12:46:26.154Z,43.23
2018-10-19T12:48:38.380Z,46.17
2018-10-19T12:50:50.591Z,47.53
2018-10-19T12:53:02.816Z,41.20
2018-10-19T12:55:15.122Z,47.80
2018-10-19T12:57:27.391Z,42.20
2018-10-19T12:59:39.615Z,44.97
2018-10-19T13:01:51.899Z,45.47
2018-10-19T13:04:06.403Z,39.17
2018-10-19T13:06:18.628Z,42.33
2018-10-19T13:08:33.791Z,37.23
2018-10-19T13:10:46.055Z,43.80
2018-10-19T13:12:59.156Z,45.17
2018-10-19T13:15:11.447Z,47.43
2018-10-19T13:17:23.599Z,47.30
2018-10-19T13:19:36.114Z,46.17
2018-10-19T13:21:49.363Z,44.13
2018-10-19T13:24:01.714Z,38.00
2018-10-19T13:26:13.890Z,39.10
2018-10-19T13:28:27.093Z,36.63
2018-10-19T13:30:39.303Z,43.03
2018-10-19T13:32:51.600Z,42.70
2018-10-19T13:35:04.978Z,43.67
2018-10-19T13:37:19.043Z,46.83
2018-10-19T13:39:31.298Z,42.63
2018-10-19T13:41:43.617Z,42.20
2018-10-19T13:43:55.837Z,34.50
2018-10-19T13:46:08.961Z,45.80
2018-10-19T13:48:21.729Z,48.27
2018-10-19T13:50:33.977Z,37.13
2018-10-19T13:52:46.242Z,32.43
2018-10-19T13:54:58.448Z,29.57
2018-10-19T13:57:10.753Z,36.73
2018-10-19T13:59:22.951Z,40.27
2018-10-19T14:01:36.133Z,43.20
2018-10-19T14:03:48.394Z,38.53
2018-10-19T14:06:00.647Z,29.07
2018-10-19T14:08:17.474Z,34.03
2018-10-19T14:10:31.736Z,29.77
2018-10-19T14:12:44.864Z,34.90
2018-10-19T14:14:57.185Z,39.70
2018-10-19T14:17:09.494Z,27.73
2018-10-19T14:19:21.685Z,33.17
2018-10-19T14:21:35.909Z,32.60
2018-10-19T14:23:48.188Z,28.97
2018-10-19T14:26:01.356Z,38.63
2018-10-19T14:28:14.464Z,37.40
2018-10-19T14:30:26.903Z,32.97
2018-10-19T14:32:39.949Z,31.20
2018-10-19T14:34:52.167Z,45.90
2018-10-19T14:37:04.576Z,34.87
2018-10-19T14:39:16.926Z,36.80
2018-10-19T14:41:29.064Z,40.87
2018-10-19T14:43:41.303Z,39.40
2018-10-19T14:45:53.543Z,41.57
2018-10-19T14:48:05.846Z,35.70
2018-10-19T14:50:18.550Z,34.53
2018-10-19T14:52:30.800Z,31.63
2018-10-19T14:54:43.155Z,35.63
2018-10-19T14:56:55.273Z,37.60
2018-10-19T14:59:09.580Z,40.30
2018-10-19T15:01:21.719Z,36.20
2018-10-19T15:03:34.903Z,33.07
2018-10-19T15:05:47.120Z,36.53
2018-10-19T15:07:59.443Z,34.17
2018-10-19T15:10:14.261Z,37.67
2018-10-19T15:12:26.532Z,39.17
2018-10-19T15:14:39.565Z,36.50
2018-10-19T15:16:51.920Z,39.67
2018-10-19T15:19:05.048Z,42.40
2018-10-19T15:21:17.374Z,30.23
2018-10-19T15:23:29.615Z,29.20
2018-10-19T15:25:41.889Z,26.00
2018-10-19T15:27:54.163Z,36.23
2018-10-19T15:30:07.379Z,36.90
2018-10-19T15:32:19.626Z,40.40
2018-10-19T15:34:31.875Z,38.53
2018-10-19T15:36:45.893Z,36.40
2018-10-19T15:38:58.176Z,36.23
2018-10-19T15:41:10.401Z,39.70
2018-10-19T15:43:24.463Z,38.77
2018-10-19T15:45:36.728Z,37.23
2018-10-19T15:47:50.803Z,38.10
2018-10-19T15:50:04.110Z,43.27
2018-10-19T15:52:16.340Z,42.50
2018-10-19T15:54:28.591Z,42.70
2018-10-19T15:56:40.852Z,41.00
2018-10-19T15:58:53.162Z,30.67
2018-10-19T16:01:05.435Z,30.07
2018-10-19T16:03:17.672Z,31.37
2018-10-19T16:05:29.951Z,40.37
2018-10-19T16:07:43.043Z,43.63
2018-10-19T16:09:55.302Z,42.13
2018-10-19T16:12:08.555Z,38.57
2018-10-19T16:14:21.645Z,43.80
2018-10-19T16:16:33.891Z,34.90
2018-10-19T16:18:47.163Z,42.90
2018-10-19T16:20:59.419Z,40.50
2018-10-19T16:23:15.489Z,39.60
2018-10-19T16:25:27.711Z,27.93
2018-10-19T16:27:40.073Z,32.23
2018-10-19T16:29:52.346Z,43.63
2018-10-19T16:32:05.029Z,45.73
2018-10-19T16:34:17.238Z,45.57
2018-10-19T16:36:32.286Z,33.73
2018-10-19T16:38:44.541Z,36.20
2018-10-19T16:40:56.803Z,34.53
2018-10-19T16:43:09.103Z,34.27
2018-10-19T16:45:21.350Z,36.37
2018-10-19T16:47:35.244Z,34.73
2018-10-19T16:49:47.521Z,37.43
2018-10-19T16:51:59.808Z,38.00
2018-10-19T16:54:14.079Z,36.70
2018-10-19T16:56:27.185Z,36.90
2018-10-19T16:58:39.508Z,31.57
2018-10-19T17:00:51.735Z,33.77
2018-10-19T17:03:04.243Z,31.73
2018-10-19T17:05:17.335Z,37.70
2018-10-19T17:07:37.387Z,29.33
2018-10-19T17:09:49.695Z,34.37
2018-10-19T17:12:02.015Z,38.37
2018-10-19T17:14:14.223Z,36.03
2018-10-19T17:16:26.480Z,37.03
2018-10-19T17:18:39.636Z,36.93
2018-10-19T17:20:51.873Z,31.27
2018-10-19T17:23:04.172Z,29.43
2018-10-19T17:25:16.467Z,39.37
2018-10-19T17:27:28.779Z,32.77
2018-10-19T17:29:41.007Z,38.30
2018-10-19T17:31:56.069Z,39.23
2018-10-19T17:34:08.408Z,38.40
2018-10-19T17:36:20.747Z,46.93
2018-10-19T17:38:33.866Z,44.47
2018-10-19T17:40:46.152Z,41.03
2018-10-19T17:42:58.596Z,37.93
2018-10-19T17:45:10.861Z,40.00
2018-10-19T17:47:23.051Z,38.60
2018-10-19T17:49:35.384Z,36.77
2018-10-19T17:51:47.622Z,32.77
2018-10-19T17:53:59.900Z,37.63
2018-10-19T17:56:12.118Z,38.20
2018-10-19T17:58:24.372Z,38.00
2018-10-19T18:00:36.670Z,38.63
2018-10-19T18:02:48.962Z,40.83
2018-10-19T18:05:01.258Z,36.60
2018-10-19T18:07:13.536Z,41.90
2018-10-19T18:09:25.835Z,40.17
2018-10-19T18:11:38.362Z,39.93
2018-10-19T18:13:50.582Z,35.73
2018-10-19T18:16:02.879Z,37.13
2018-10-19T18:18:15.079Z,37.97
2018-10-19T18:20:29.063Z,39.90
2018-10-19T18:22:41.383Z,37.07
2018-10-19T18:24:53.528Z,37.97
2018-10-19T18:27:05.808Z,35.23
2018-10-19T18:29:18.057Z,39.27
2018-10-19T18:31:31.146Z,38.50
2018-10-19T18:33:43.431Z,40.83
2018-10-19T18:35:55.703Z,36.00
2018-10-19T18:38:08.110Z,38.00
2018-10-19T18:40:20.319Z,39.83
2018-10-19T18:42:32.598Z,40.70
2018-10-19T18:44:44.964Z,40.63
2018-10-19T18:46:57.236Z,41.97
2018-10-19T18:49:09.553Z,39.97
2018-10-19T18:51:21.831Z,40.83
2018-10-19T18:53:34.090Z,41.47
2018-10-19T18:55:46.392Z,41.37
2018-10-19T18:57:58.684Z,41.27
2018-10-19T19:00:11.343Z,41.03
2018-10-19T19:02:23.693Z,40.27
2018-10-19T19:04:35.968Z,41.00
2018-10-19T19:06:48.246Z,40.93
2018-10-19T19:09:00.574Z,40.30
2018-10-19T19:11:12.946Z,40.20
2018-10-19T19:13:28.666Z,40.43
2018-10-19T19:15:40.927Z,40.03
2018-10-19T19:17:53.233Z,38.00
2018-10-19T19:20:12.107Z,39.10
2018-10-19T19:22:24.307Z,41.30
2018-10-19T19:24:42.252Z,41.40
2018-10-19T19:26:54.579Z,41.63
2018-10-19T19:29:06.948Z,41.17
2018-10-19T19:31:19.160Z,42.43
2018-10-19T19:33:37.048Z,39.00
2018-10-19T19:35:49.444Z,42.47
2018-10-19T19:38:01.767Z,42.97
2018-10-19T19:40:14.063Z,42.20
2018-10-19T19:42:31.935Z,44.23
2018-10-19T19:44:44.308Z,40.00
2018-10-19T19:46:56.608Z,42.23
2018-10-19T19:49:14.533Z,39.87
2018-10-19T19:51:26.871Z,43.67
2018-10-19T19:53:39.307Z,42.83
2018-10-19T19:55:51.582Z,43.07
2018-10-19T19:58:04.154Z,40.43
2018-10-19T20:00:16.409Z,39.73
2018-10-19T20:02:28.653Z,42.83
2018-10-19T20:04:40.905Z,41.83
2018-10-19T20:06:53.196Z,42.67
2018-10-19T20:09:06.328Z,44.10
2018-10-19T20:11:18.606Z,41.70
2018-10-19T20:13:30.887Z,45.17
2018-10-19T20:15:43.194Z,46.90
2018-10-19T20:17:55.427Z,46.90
2018-10-19T20:20:09.149Z,47.80
2018-10-19T20:22:21.462Z,44.60
2018-10-19T20:24:34.012Z,43.57
2018-10-19T20:26:46.276Z,42.20
2018-10-19T20:28:58.515Z,44.03
2018-10-19T20:31:10.750Z,45.37
2018-10-19T20:33:23.068Z,44.07
2018-10-19T20:35:35.193Z,46.10
2018-10-19T20:37:47.439Z,46.33
2018-10-19T20:39:59.700Z,46.57
2018-10-19T20:42:11.966Z,46.37
2018-10-19T20:44:24.244Z,48.00
2018-10-19T20:46:36.541Z,48.10
2018-10-19T20:48:48.799Z,48.00
2018-10-19T20:51:01.060Z,46.53
2018-10-19T20:53:13.340Z,45.37
2018-10-19T20:55:25.574Z,46.40
2018-10-19T20:57:38.078Z,45.17
2018-10-19T20:59:50.330Z,45.53
2018-10-19T21:02:02.674Z,46.00
2018-10-19T21:04:14.903Z,45.53
2018-10-19T21:06:27.187Z,47.73
2018-10-19T21:08:39.479Z,45.23
2018-10-19T21:10:51.682Z,44.70
2018-10-19T21:13:03.953Z,48.37
2018-10-19T21:15:16.209Z,45.77
2018-10-19T21:17:28.471Z,47.60
2018-10-19T21:19:40.721Z,48.43
2018-10-19T21:21:53.023Z,47.40
2018-10-19T21:24:05.362Z,47.33
2018-10-19T21:26:17.650Z,47.93
2018-10-19T21:28:29.895Z,48.70
2018-10-19T21:30:42.191Z,50.43
2018-10-19T21:32:54.427Z,49.40
2018-10-19T21:35:06.804Z,49.70
2018-10-19T21:37:18.954Z,50.87
2018-10-19T21:39:31.176Z,48.47
2018-10-19T21:41:43.449Z,49.90
2018-10-19T21:43:55.796Z,47.87
2018-10-19T21:46:08.027Z,49.07
2018-10-19T21:48:20.267Z,48.13
2018-10-19T21:50:32.554Z,53.17
2018-10-19T21:52:44.755Z,49.77
2018-10-19T21:54:56.962Z,48.90
2018-10-19T21:57:09.289Z,51.47
2018-10-19T21:59:21.492Z,51.57
2018-10-19T22:01:34.612Z,51.73
2018-10-19T22:03:46.871Z,47.87
2018-10-19T22:05:59.267Z,49.10
2018-10-19T22:08:11.511Z,48.30
2018-10-19T22:10:23.722Z,49.43
2018-10-19T22:12:35.975Z,50.60
2018-10-19T22:14:48.251Z,47.37
2018-10-19T22:17:00.554Z,46.53
2018-10-19T22:19:12.802Z,48.10
2018-10-19T22:21:24.987Z,51.13
2018-10-19T22:23:37.359Z,51.27
2018-10-19T22:25:49.586Z,50.83
2018-10-19T22:28:01.839Z,49.73
2018-10-19T22:30:14.138Z,53.30
2018-10-19T22:32:26.451Z,52.17
2018-10-19T22:34:38.749Z,51.90
2018-10-19T22:36:51.096Z,51.33
2018-10-19T22:39:03.707Z,51.47
2018-10-19T22:41:16.029Z,49.97
2018-10-19T22:43:28.203Z,50.93
2018-10-19T22:45:40.402Z,49.77
2018-10-19T22:47:52.656Z,51.27
2018-10-19T22:50:04.946Z,51.80
2018-10-19T22:52:21.582Z,51.17
2018-10-19T22:54:33.968Z,49.30
2018-10-19T22:56:46.413Z,42.67
2018-10-19T22:58:58.632Z,47.40
2018-10-19T23:01:11.681Z,48.63
2018-10-19T23:03:27.309Z,50.50
2018-10-19T23:05:39.532Z,50.67
2018-10-19T23:07:51.730Z,50.70
2018-10-19T23:10:05.291Z,52.07
2018-10-19T23:12:17.572Z,50.80
2018-10-19T23:14:29.844Z,51.53
2018-10-19T23:16:42.083Z,52.23
2018-10-19T23:18:54.264Z,51.30
2018-10-19T23:21:06.510Z,47.20
2018-10-19T23:23:18.701Z,48.87
2018-10-19T23:25:30.914Z,51.47
2018-10-19T23:27:43.116Z,51.07
2018-10-19T23:29:55.349Z,48.40
2018-10-19T23:32:07.548Z,49.63
2018-10-19T23:34:19.798Z,50.90
2018-10-19T23:36:32.018Z,50.03
2018-10-19T23:38:44.322Z,42.70
2018-10-19T23:40:56.642Z,51.30
2018-10-19T23:43:08.913Z,51.10
2018-10-19T23:45:21.042Z,53.60
2018-10-19T23:47:33.260Z,54.83
2018-10-19T23:49:45.496Z,49.93
2018-10-19T23:51:57.728Z,53.43
2018-10-19T23:54:09.934Z,55.77
2018-10-19T23:56:22.183Z,56.73
2018-10-19T23:58:34.441Z,52.30
